createdAt,value
2017-09-03T00:01:41.710Z,31.43
2017-09-03T00:04:09.168Z,33.97
2017-09-03T00:06:36.703Z,38.83
2017-09-03T00:09:04.182Z,34.97
2017-09-03T00:11:31.642Z,34.63
2017-09-03T00:13:59.094Z,36.13
2017-09-03T00:16:26.575Z,29.50
2017-09-03T00:18:54.051Z,35.20
2017-09-03T00:21:21.511Z,40.60
2017-09-03T00:23:48.999Z,35.50
2017-09-03T00:26:16.461Z,36.70
2017-09-03T00:28:43.954Z,42.93
2017-09-03T00:31:11.442Z,43.57
2017-09-03T00:33:38.921Z,42.83
2017-09-03T00:36:06.401Z,48.57
2017-09-03T00:38:33.886Z,59.83
2017-09-03T00:41:01.346Z,52.60
2017-09-03T00:43:28.802Z,55.77
2017-09-03T00:45:56.294Z,54.70
2017-09-03T00:48:24.615Z,54.03
2017-09-03T00:50:52.082Z,63.60
2017-09-03T00:53:19.564Z,66.17
2017-09-03T00:55:47.033Z,63.83
2017-09-03T00:58:14.490Z,54.40
2017-09-03T01:00:42.027Z,63.03
2017-09-03T01:03:09.514Z,52.27
2017-09-03T01:05:36.989Z,63.47
2017-09-03T01:08:04.474Z,58.87
2017-09-03T01:10:31.942Z,62.33
2017-09-03T01:12:59.447Z,56.73
2017-09-03T01:15:26.938Z,58.40
2017-09-03T01:17:54.416Z,55.20
2017-09-03T01:20:21.882Z,59.10
2017-09-03T01:22:49.362Z,57.63
2017-09-03T01:25:16.819Z,52.53
2017-09-03T01:27:44.286Z,50.60
2017-09-03T01:30:11.766Z,58.43
2017-09-03T01:32:39.226Z,58.63
2017-09-03T01:35:06.683Z,67.87
2017-09-03T01:37:34.178Z,57.23
2017-09-03T01:40:01.638Z,56.57
2017-09-03T01:42:29.095Z,63.40
2017-09-03T01:44:56.578Z,63.93
2017-09-03T01:47:24.039Z,66.07
2017-09-03T01:49:51.498Z,71.23
2017-09-03T01:52:18.982Z,71.03
2017-09-03T01:54:46.438Z,67.77
2017-09-03T01:57:13.894Z,80.53
2017-09-03T01:59:41.373Z,91.90
2017-09-03T02:02:08.826Z,95.07
2017-09-03T02:04:36.285Z,68.17
2017-09-03T02:07:03.766Z,68.80
2017-09-03T02:09:31.222Z,67.83
2017-09-03T02:11:58.678Z,65.00
2017-09-03T02:14:26.207Z,80.03
2017-09-03T02:16:53.671Z,70.90
2017-09-03T02:19:21.149Z,73.83
2017-09-03T02:21:48.631Z,76.07
2017-09-03T02:24:16.091Z,68.80
2017-09-03T02:26:43.546Z,75.10
2017-09-03T02:29:11.032Z,89.00
2017-09-03T02:31:38.493Z,71.57
2017-09-03T02:34:05.955Z,70.63
2017-09-03T02:36:33.434Z,61.97
2017-09-03T02:39:00.942Z,70.90
2017-09-03T02:41:28.402Z,82.33
2017-09-03T02:43:55.895Z,78.50
2017-09-03T02:46:23.358Z,65.67
2017-09-03T02:48:50.810Z,79.80
2017-09-03T02:51:18.299Z,67.10
2017-09-03T02:53:45.778Z,68.03
2017-09-03T02:56:13.238Z,86.70
2017-09-03T02:58:40.718Z,80.80
2017-09-03T03:01:08.178Z,68.70
2017-09-03T03:03:35.639Z,77.53
2017-09-03T03:06:03.296Z,69.67
2017-09-03T03:08:30.755Z,65.50
2017-09-03T03:10:58.210Z,68.63
2017-09-03T03:13:25.710Z,77.57
2017-09-03T03:15:53.172Z,71.10
2017-09-03T03:18:20.632Z,67.43
2017-09-03T03:20:48.111Z,72.80
2017-09-03T03:23:15.567Z,68.47
2017-09-03T03:25:43.026Z,60.47
2017-09-03T03:28:10.509Z,59.83
2017-09-03T03:30:37.963Z,70.47
2017-09-03T03:33:05.426Z,62.47
2017-09-03T03:35:32.910Z,64.73
2017-09-03T03:38:00.370Z,53.37
2017-09-03T03:40:27.833Z,66.10
2017-09-03T03:42:55.322Z,61.50
2017-09-03T03:45:22.778Z,64.37
2017-09-03T03:47:50.235Z,63.50
2017-09-03T03:50:17.716Z,53.87
2017-09-03T03:52:45.171Z,74.70
2017-09-03T03:55:12.627Z,69.90
2017-09-03T03:57:40.106Z,70.97
2017-09-03T04:00:07.966Z,72.10
2017-09-03T04:02:35.428Z,75.93
2017-09-03T04:05:02.914Z,78.27
2017-09-03T04:07:30.368Z,63.90
2017-09-03T04:09:57.831Z,58.30
2017-09-03T04:12:25.318Z,69.13
2017-09-03T04:14:52.777Z,72.67
2017-09-03T04:17:20.234Z,58.50
2017-09-03T04:19:47.717Z,67.53
2017-09-03T04:22:15.178Z,71.40
2017-09-03T04:24:42.643Z,63.50
2017-09-03T04:27:10.127Z,56.60
2017-09-03T04:29:37.587Z,60.90
2017-09-03T04:32:05.051Z,58.57
2017-09-03T04:34:32.530Z,60.17
2017-09-03T04:36:59.988Z,52.70
2017-09-03T04:39:27.450Z,59.50
2017-09-03T04:41:54.954Z,53.73
2017-09-03T04:44:22.415Z,59.17
2017-09-03T04:46:49.882Z,57.50
2017-09-03T04:49:17.363Z,54.90
2017-09-03T04:51:44.825Z,46.83
2017-09-03T04:54:12.283Z,48.03
2017-09-03T04:56:39.762Z,59.00
2017-09-03T04:59:07.235Z,62.83
2017-09-03T05:01:34.695Z,67.47
2017-09-03T05:04:02.174Z,54.63
2017-09-03T05:06:29.630Z,61.93
2017-09-03T05:08:57.086Z,56.10
2017-09-03T05:11:24.571Z,56.23
2017-09-03T05:13:52.027Z,59.70
2017-09-03T05:16:19.489Z,64.50
2017-09-03T05:18:46.967Z,54.00
2017-09-03T05:21:14.422Z,50.97
2017-09-03T05:23:41.882Z,51.53
2017-09-03T05:26:09.362Z,52.20
2017-09-03T05:28:36.813Z,50.00
2017-09-03T05:31:04.273Z,53.90
2017-09-03T05:33:31.759Z,50.73
2017-09-03T05:35:59.235Z,63.23
2017-09-03T05:38:26.693Z,48.80
2017-09-03T05:40:54.179Z,55.10
2017-09-03T05:43:21.638Z,51.17
2017-09-03T05:45:49.110Z,59.27
2017-09-03T05:48:16.590Z,64.43
2017-09-03T05:50:44.046Z,56.93
2017-09-03T05:53:11.508Z,59.50
2017-09-03T05:55:38.982Z,54.60
2017-09-03T05:58:06.448Z,56.10
2017-09-03T06:00:33.910Z,55.43
2017-09-03T06:03:01.394Z,66.83
2017-09-03T06:05:28.852Z,60.23
2017-09-03T06:07:56.310Z,68.77
2017-09-03T06:10:23.790Z,57.70
2017-09-03T06:12:52.286Z,55.20
2017-09-03T06:15:19.738Z,57.33
2017-09-03T06:17:47.382Z,52.93
2017-09-03T06:20:14.838Z,59.77
2017-09-03T06:22:42.303Z,53.90
2017-09-03T06:25:09.789Z,57.07
2017-09-03T06:27:37.254Z,51.43
2017-09-03T06:30:04.714Z,61.70
2017-09-03T06:32:32.198Z,57.57
2017-09-03T06:34:59.654Z,59.33
2017-09-03T06:37:27.123Z,54.97
2017-09-03T06:39:54.611Z,56.47
2017-09-03T06:42:22.069Z,57.17
2017-09-03T06:44:49.526Z,55.10
2017-09-03T06:47:17.008Z,55.20
2017-09-03T06:49:44.462Z,50.63
2017-09-03T06:52:11.915Z,50.33
2017-09-03T06:54:39.393Z,58.70
2017-09-03T06:57:06.846Z,51.10
2017-09-03T06:59:34.310Z,52.43
2017-09-03T07:02:01.795Z,55.77
2017-09-03T07:04:29.258Z,51.67
2017-09-03T07:06:56.739Z,52.73
2017-09-03T07:09:24.218Z,54.67
2017-09-03T07:11:51.678Z,54.33
2017-09-03T07:14:19.146Z,48.97
2017-09-03T07:16:46.626Z,58.53
2017-09-03T07:19:14.082Z,65.17
2017-09-03T07:21:41.538Z,56.70
2017-09-03T07:24:09.017Z,52.83
2017-09-03T07:26:36.484Z,58.90
2017-09-03T07:29:03.951Z,61.03
2017-09-03T07:31:31.435Z,50.23
2017-09-03T07:33:58.891Z,49.50
2017-09-03T07:36:26.346Z,49.17
2017-09-03T07:38:53.845Z,48.63
2017-09-03T07:41:21.295Z,49.07
2017-09-03T07:43:48.756Z,56.87
2017-09-03T07:46:16.238Z,50.73
2017-09-03T07:48:43.698Z,48.20
2017-09-03T07:51:11.159Z,54.50
2017-09-03T07:53:38.646Z,54.00
2017-09-03T07:56:06.103Z,49.93
2017-09-03T07:58:33.558Z,46.80
2017-09-03T08:01:01.000Z,54.07
2017-09-03T08:03:28.493Z,52.23
2017-09-03T08:05:55.941Z,47.80
2017-09-03T08:08:23.431Z,54.40
2017-09-03T08:10:50.898Z,50.47
2017-09-03T08:13:18.364Z,43.37
2017-09-03T08:15:45.846Z,45.37
2017-09-03T08:18:13.318Z,50.20
2017-09-03T08:20:40.786Z,40.30
2017-09-03T08:23:08.283Z,50.87
2017-09-03T08:25:35.738Z,46.97
2017-09-03T08:28:03.197Z,43.70
2017-09-03T08:30:30.690Z,44.07
2017-09-03T08:32:57.433Z,49.00
2017-09-03T08:35:24.890Z,45.80
2017-09-03T08:37:52.373Z,53.97
2017-09-03T08:40:19.836Z,41.50
2017-09-03T08:42:47.298Z,41.00
2017-09-03T08:45:14.786Z,37.20
2017-09-03T08:47:42.246Z,48.67
2017-09-03T08:50:09.702Z,42.67
2017-09-03T08:52:37.190Z,41.80
2017-09-03T08:55:04.646Z,46.00
2017-09-03T08:57:32.107Z,43.43
2017-09-03T08:59:59.594Z,43.00
2017-09-03T09:02:27.053Z,39.77
2017-09-03T09:04:54.530Z,40.43
2017-09-03T09:07:22.022Z,38.30
2017-09-03T09:09:49.478Z,41.30
2017-09-03T09:12:16.938Z,39.47
2017-09-03T09:14:44.414Z,36.63
2017-09-03T09:17:11.870Z,40.60
2017-09-03T09:19:39.330Z,42.33
2017-09-03T09:22:06.820Z,42.57
2017-09-03T09:24:34.278Z,41.83
2017-09-03T09:27:01.747Z,43.70
2017-09-03T09:29:29.226Z,36.13
2017-09-03T09:31:56.682Z,37.50
2017-09-03T09:34:24.138Z,36.90
2017-09-03T09:36:51.614Z,35.50
2017-09-03T09:39:19.070Z,34.23
2017-09-03T09:41:46.532Z,35.13
2017-09-03T09:44:14.010Z,31.07
2017-09-03T09:46:41.467Z,35.30
2017-09-03T09:49:08.935Z,33.43
2017-09-03T09:51:36.444Z,35.57
2017-09-03T09:54:03.935Z,37.43
2017-09-03T09:56:31.393Z,39.17
2017-09-03T09:58:58.835Z,33.30
2017-09-03T10:01:26.346Z,34.33
2017-09-03T10:03:53.827Z,33.20
2017-09-03T10:06:21.311Z,35.20
2017-09-03T10:08:48.771Z,31.83
2017-09-03T10:11:16.234Z,34.50
2017-09-03T10:13:43.714Z,36.20
2017-09-03T10:16:11.182Z,31.70
2017-09-03T10:18:38.646Z,28.70
2017-09-03T10:21:06.134Z,32.30
2017-09-03T10:23:33.598Z,33.47
2017-09-03T10:26:01.064Z,29.97
2017-09-03T10:28:28.549Z,29.97
2017-09-03T10:30:56.012Z,33.50
2017-09-03T10:33:23.478Z,33.00
2017-09-03T10:35:50.954Z,27.80
2017-09-03T10:38:18.419Z,28.90
2017-09-03T10:40:45.917Z,27.10
2017-09-03T10:43:13.399Z,27.27
2017-09-03T10:45:40.890Z,29.47
2017-09-03T10:48:08.396Z,26.97
2017-09-03T10:50:35.875Z,24.73
2017-09-03T10:53:03.339Z,23.03
2017-09-03T10:55:30.823Z,20.27
2017-09-03T10:57:58.303Z,21.60
2017-09-03T11:00:25.780Z,25.40
2017-09-03T11:02:53.270Z,26.67
2017-09-03T11:05:20.727Z,23.93
2017-09-03T11:07:48.202Z,24.90
2017-09-03T11:10:15.654Z,27.63
2017-09-03T11:12:43.154Z,21.83
2017-09-03T11:15:10.648Z,22.90
2017-09-03T11:17:38.113Z,22.20
2017-09-03T11:20:05.579Z,25.20
2017-09-03T11:22:33.026Z,24.63
2017-09-03T11:25:00.510Z,22.30
2017-09-03T11:27:27.981Z,22.87
2017-09-03T11:29:55.473Z,27.40
2017-09-03T11:32:22.930Z,23.13
2017-09-03T11:34:50.386Z,22.63
2017-09-03T11:37:17.871Z,26.73
2017-09-03T11:39:45.326Z,22.80
2017-09-03T11:42:12.791Z,26.00
2017-09-03T11:44:40.274Z,22.63
2017-09-03T11:47:07.739Z,22.43
2017-09-03T11:49:35.205Z,24.40
2017-09-03T11:52:02.691Z,20.77
2017-09-03T11:54:30.154Z,20.33
2017-09-03T11:56:57.615Z,21.07
2017-09-03T11:59:25.105Z,19.57
2017-09-03T12:01:52.563Z,22.93
2017-09-03T12:04:20.018Z,23.30
2017-09-03T12:06:47.502Z,17.80
2017-09-03T12:09:14.954Z,19.40
2017-09-03T12:11:42.439Z,20.03
2017-09-03T12:14:09.905Z,24.47
2017-09-03T12:16:37.403Z,33.10
2017-09-03T12:19:04.917Z,17.80
2017-09-03T12:21:32.634Z,22.00
2017-09-03T12:24:00.157Z,19.07
2017-09-03T12:26:27.764Z,20.10
2017-09-03T12:28:55.720Z,14.87
2017-09-03T12:31:23.406Z,20.73
2017-09-03T12:33:50.935Z,16.10
2017-09-03T12:36:18.399Z,25.87
2017-09-03T12:38:45.866Z,17.60
2017-09-03T12:41:13.347Z,19.30
2017-09-03T12:43:40.801Z,20.57
2017-09-03T12:46:08.266Z,21.37
2017-09-03T12:48:35.753Z,18.63
2017-09-03T12:51:03.381Z,25.63
2017-09-03T12:53:30.887Z,13.70
2017-09-03T12:55:58.366Z,18.67
2017-09-03T12:58:25.851Z,18.20
2017-09-03T13:00:53.789Z,22.33
2017-09-03T13:03:21.288Z,19.50
2017-09-03T13:05:48.766Z,21.70
2017-09-03T13:08:16.267Z,19.80
2017-09-03T13:10:43.779Z,23.50
2017-09-03T13:13:11.245Z,23.87
2017-09-03T13:15:38.701Z,19.70
2017-09-03T13:18:06.177Z,21.57
2017-09-03T13:20:33.643Z,20.77
2017-09-03T13:23:01.106Z,18.73
2017-09-03T13:25:28.586Z,20.13
2017-09-03T13:27:56.047Z,20.17
2017-09-03T13:30:23.538Z,18.43
2017-09-03T13:32:51.003Z,16.50
2017-09-03T13:35:18.493Z,12.70
2017-09-03T13:37:45.987Z,11.87
2017-09-03T13:40:13.467Z,16.87
2017-09-03T13:42:40.933Z,11.40
2017-09-03T13:45:08.411Z,12.03
2017-09-03T13:47:35.894Z,12.80
2017-09-03T13:50:03.346Z,17.50
2017-09-03T13:52:31.335Z,20.13
2017-09-03T13:54:58.826Z,16.50
2017-09-03T13:57:26.287Z,16.07
2017-09-03T13:59:53.771Z,16.57
2017-09-03T14:02:21.246Z,16.03
2017-09-03T14:04:48.732Z,19.43
2017-09-03T14:07:16.799Z,19.80
2017-09-03T14:09:44.278Z,18.10
2017-09-03T14:12:11.802Z,14.50
2017-09-03T14:14:39.291Z,16.00
2017-09-03T14:17:06.818Z,23.30
2017-09-03T14:19:34.298Z,17.20
2017-09-03T14:22:01.782Z,20.33
2017-09-03T14:24:29.301Z,18.80
2017-09-03T14:26:56.769Z,25.73
2017-09-03T14:29:24.233Z,21.53
2017-09-03T14:31:51.722Z,19.17
2017-09-03T14:34:19.183Z,19.07
2017-09-03T14:36:46.649Z,17.03
2017-09-03T14:39:14.130Z,20.30
2017-09-03T14:41:41.650Z,39.33
2017-09-03T14:44:09.140Z,22.73
2017-09-03T14:46:36.626Z,16.83
2017-09-03T14:49:04.207Z,15.60
2017-09-03T14:51:31.690Z,15.70
2017-09-03T14:53:59.178Z,16.93
2017-09-03T14:56:26.647Z,20.00
2017-09-03T14:58:54.139Z,18.50
2017-09-03T15:01:21.622Z,20.23
2017-09-03T15:03:49.115Z,16.20
2017-09-03T15:06:16.594Z,15.60
2017-09-03T15:08:44.103Z,18.67
2017-09-03T15:11:11.599Z,11.73
2017-09-03T15:13:39.082Z,15.13
2017-09-03T15:16:06.541Z,19.77
2017-09-03T15:18:34.002Z,16.60
2017-09-03T15:21:01.495Z,16.23
2017-09-03T15:23:28.951Z,15.37
2017-09-03T15:25:56.435Z,16.00
2017-09-03T15:28:23.922Z,15.53
2017-09-03T15:30:51.394Z,15.90
2017-09-03T15:33:18.863Z,24.80
2017-09-03T15:35:46.345Z,18.67
2017-09-03T15:38:13.809Z,13.13
2017-09-03T15:40:41.291Z,15.60
2017-09-03T15:43:08.774Z,21.73
2017-09-03T15:45:36.235Z,16.67
2017-09-03T15:48:03.740Z,13.67
2017-09-03T15:50:31.198Z,14.63
2017-09-03T15:52:58.675Z,14.90
2017-09-03T15:55:26.162Z,17.50
2017-09-03T15:57:53.622Z,15.70
2017-09-03T16:00:21.083Z,13.67
2017-09-03T16:02:48.565Z,11.37
2017-09-03T16:05:16.022Z,16.47
2017-09-03T16:07:43.491Z,13.77
2017-09-03T16:10:10.976Z,15.80
2017-09-03T16:12:38.454Z,26.23
2017-09-03T16:15:05.963Z,17.20
2017-09-03T16:17:33.423Z,13.10
2017-09-03T16:20:00.885Z,11.03
2017-09-03T16:22:28.358Z,11.93
2017-09-03T16:24:55.810Z,11.20
2017-09-03T16:27:23.271Z,13.27
2017-09-03T16:29:50.758Z,14.27
2017-09-03T16:32:18.242Z,14.17
2017-09-03T16:34:45.703Z,13.03
2017-09-03T16:37:13.218Z,13.73
2017-09-03T16:39:40.706Z,14.63
2017-09-03T16:42:08.166Z,18.10
2017-09-03T16:44:35.628Z,13.67
2017-09-03T16:47:03.138Z,18.33
2017-09-03T16:49:30.606Z,15.10
2017-09-03T16:51:58.110Z,11.10
2017-09-03T16:54:25.606Z,14.47
2017-09-03T16:56:53.082Z,13.10
2017-09-03T16:59:20.580Z,16.83
2017-09-03T17:01:48.066Z,12.13
2017-09-03T17:04:15.551Z,13.83
2017-09-03T17:06:43.019Z,12.73
2017-09-03T17:09:10.523Z,12.50
2017-09-03T17:11:38.024Z,17.20
2017-09-03T17:14:05.506Z,11.97
2017-09-03T17:16:33.179Z,13.23
2017-09-03T17:19:00.654Z,12.10
2017-09-03T17:21:28.161Z,13.33
2017-09-03T17:23:55.880Z,11.23
2017-09-03T17:26:23.382Z,11.97
2017-09-03T17:28:50.885Z,15.30
2017-09-03T17:31:24.135Z,12.73
2017-09-03T17:33:51.880Z,13.60
2017-09-03T17:36:19.696Z,11.43
2017-09-03T17:38:51.949Z,14.50
2017-09-03T17:41:34.454Z,12.60
2017-09-03T17:44:02.580Z,10.90
2017-09-03T17:46:30.780Z,16.17
2017-09-03T17:48:58.778Z,14.80
2017-09-03T17:51:26.727Z,47.23
2017-09-03T17:53:54.466Z,52.70
2017-09-03T17:56:22.452Z,74.83
2017-09-03T17:58:50.661Z,85.53
2017-09-03T18:01:18.687Z,71.27
2017-09-03T18:03:47.053Z,73.50
2017-09-03T18:06:15.179Z,47.57
2017-09-03T18:08:43.510Z,66.67
2017-09-03T18:11:11.767Z,45.97
2017-09-03T18:13:40.500Z,65.13
2017-09-03T18:16:08.983Z,77.20
2017-09-03T18:18:37.407Z,65.20
2017-09-03T18:21:06.048Z,59.40
2017-09-03T18:23:34.636Z,46.73
2017-09-03T18:26:03.231Z,53.20
2017-09-03T18:28:46.537Z,49.30
2017-09-03T18:31:15.040Z,42.23
2017-09-03T18:33:44.368Z,32.80
2017-09-03T18:36:13.683Z,29.30
2017-09-03T18:41:43.898Z,15.53
2017-09-03T18:44:22.260Z,14.63
2017-09-03T18:46:50.982Z,19.40
2017-09-03T18:49:19.578Z,18.40
2017-09-03T18:51:48.392Z,17.93
2017-09-03T18:54:16.986Z,23.70
2017-09-03T18:56:45.576Z,20.40
2017-09-03T18:59:16.934Z,14.00
2017-09-03T19:01:45.506Z,17.30
2017-09-03T19:04:14.834Z,15.40
2017-09-03T19:06:43.399Z,17.23
2017-09-03T19:09:12.549Z,15.33
2017-09-03T19:11:41.375Z,18.83
2017-09-03T19:14:10.302Z,18.77
2017-09-03T19:16:38.845Z,16.43
2017-09-03T19:19:07.541Z,15.27
2017-09-03T19:21:36.441Z,17.43
2017-09-03T19:24:05.066Z,19.63
2017-09-03T19:26:33.670Z,14.03
2017-09-03T19:29:02.382Z,30.73
2017-09-03T19:31:30.967Z,23.27
2017-09-03T19:33:59.633Z,30.27
2017-09-03T19:36:28.418Z,28.47
2017-09-03T19:38:56.972Z,28.80
2017-09-03T19:41:25.561Z,30.90
2017-09-03T19:43:54.162Z,27.60
2017-09-03T19:46:22.669Z,23.20
2017-09-03T19:48:51.119Z,45.03
2017-09-03T19:51:19.737Z,40.00
2017-09-03T19:53:48.244Z,45.30
2017-09-03T19:56:16.677Z,51.23
2017-09-03T19:58:45.271Z,32.93
2017-09-03T20:01:14.125Z,31.37
2017-09-03T20:03:42.658Z,38.43
2017-09-03T20:06:11.336Z,43.90
2017-09-03T20:08:39.822Z,53.63
2017-09-03T20:11:08.292Z,43.67
2017-09-03T20:13:36.842Z,39.10
2017-09-03T20:16:05.308Z,45.37
2017-09-03T20:18:33.780Z,25.73
2017-09-03T20:21:02.348Z,45.07
2017-09-03T20:23:30.793Z,36.00
2017-09-03T20:25:59.277Z,24.73
2017-09-03T20:28:27.882Z,33.17
2017-09-03T20:30:56.356Z,25.03
2017-09-03T20:33:24.786Z,26.30
2017-09-03T20:35:53.367Z,31.23
2017-09-03T20:38:21.831Z,27.00
2017-09-03T20:40:50.291Z,29.33
2017-09-03T20:43:18.769Z,24.80
2017-09-03T20:45:47.250Z,22.07
2017-09-03T20:48:15.731Z,26.20
2017-09-03T20:50:44.335Z,28.73
2017-09-03T20:53:12.726Z,21.43
2017-09-03T20:55:41.179Z,25.83
2017-09-03T20:58:09.482Z,28.27
2017-09-03T21:00:38.121Z,21.87
2017-09-03T21:03:06.201Z,20.23
2017-09-03T21:05:34.188Z,22.10
2017-09-03T21:08:02.361Z,17.13
2017-09-03T21:10:30.124Z,28.50
2017-09-03T21:12:57.658Z,24.90
2017-09-03T21:15:25.797Z,19.47
2017-09-03T21:17:53.309Z,21.27
2017-09-03T21:20:20.817Z,26.13
2017-09-03T21:22:48.298Z,26.60
2017-09-03T21:25:15.762Z,33.53
2017-09-03T21:27:43.222Z,28.80
2017-09-03T21:30:10.699Z,39.57
2017-09-03T21:32:38.157Z,29.30
2017-09-03T21:35:05.638Z,41.40
2017-09-03T21:37:33.139Z,28.53
2017-09-03T21:40:00.595Z,28.60
2017-09-03T21:42:28.087Z,40.73
2017-09-03T21:44:55.542Z,29.63
2017-09-03T21:47:22.993Z,31.63
2017-09-03T21:49:50.493Z,35.47
2017-09-03T21:52:17.950Z,33.17
2017-09-03T21:54:45.438Z,29.37
2017-09-03T21:57:12.918Z,31.93
2017-09-03T21:59:40.374Z,34.40
2017-09-03T22:02:07.834Z,40.37
2017-09-03T22:04:35.343Z,34.90
2017-09-03T22:07:02.816Z,65.07
2017-09-03T22:09:30.302Z,37.97
2017-09-03T22:11:57.765Z,33.53
2017-09-03T22:14:25.226Z,36.17
2017-09-03T22:16:52.706Z,41.27
2017-09-03T22:19:20.163Z,34.80
2017-09-03T22:21:47.619Z,41.33
2017-09-03T22:24:15.106Z,36.50
2017-09-03T22:26:42.566Z,37.30
2017-09-03T22:29:10.027Z,39.07
2017-09-03T22:31:37.519Z,33.17
2017-09-03T22:34:04.986Z,35.80
2017-09-03T22:36:32.447Z,44.20
2017-09-03T22:38:59.929Z,39.83
2017-09-03T22:41:27.397Z,49.33
2017-09-03T22:43:54.861Z,43.63
2017-09-03T22:46:22.361Z,39.33
2017-09-03T22:48:49.822Z,40.33
2017-09-03T22:51:17.342Z,46.00
2017-09-03T22:53:44.831Z,52.27
2017-09-03T22:56:12.289Z,41.83
2017-09-03T22:58:39.752Z,43.63
2017-09-03T23:01:07.230Z,38.03
2017-09-03T23:03:34.682Z,40.80
2017-09-03T23:06:02.138Z,42.23
2017-09-03T23:08:29.614Z,41.03
2017-09-03T23:10:57.075Z,38.10
2017-09-03T23:13:24.531Z,39.17
2017-09-03T23:15:52.022Z,36.50
2017-09-03T23:18:19.474Z,48.13
2017-09-03T23:20:46.930Z,43.27
2017-09-03T23:23:14.410Z,38.87
2017-09-03T23:25:41.882Z,45.73
2017-09-03T23:28:09.338Z,42.83
2017-09-03T23:30:36.825Z,42.20
2017-09-03T23:33:04.287Z,39.63
2017-09-03T23:35:31.742Z,40.67
2017-09-03T23:37:59.230Z,36.50
2017-09-03T23:40:26.692Z,43.03
2017-09-03T23:42:54.150Z,41.70
2017-09-03T23:45:21.657Z,37.67
2017-09-03T23:47:49.130Z,39.50
2017-09-03T23:50:16.594Z,40.20
2017-09-03T23:52:44.093Z,43.87
2017-09-03T23:55:11.546Z,45.47
2017-09-03T23:57:39.002Z,42.13
